Time;durP1;ratioP1;P1;durP2;ratioP2;P2;SDS_P1;SDS_P2;PMS_P1;PMS_P2;Temp;Humidity;BMP_temperature;BMP_pressure;BME280_temperature;BME280_humidity;BME280_pressure;Samples;Min_cycle;Max_cycle;Signal;HPM_P1;HPM_P2
2021/08/15 00:00:58;;;;;;;12.60;6.70;;;;;;;;;;5033983;28;20037;-52
2021/08/15 00:03:24;;;;;;;13.13;6.25;;;;;;;;;;5034576;28;20030;-52
2021/08/15 00:05:50;;;;;;;13.10;6.25;;;;;;;;;;5034386;28;20455;-52
2021/08/15 00:08:16;;;;;;;18.42;6.93;;;;;;;;;;5035134;28;20116;-52
2021/08/15 00:10:42;;;;;;;9.52;5.78;;;;;;;;;;5033598;28;20021;-52
2021/08/15 00:13:10;;;;;;;13.20;6.53;;;;;;;;;;5033898;28;20048;-52
2021/08/15 00:15:36;;;;;;;11.73;6.38;;;;;;;;;;5034404;28;20025;-52
2021/08/15 00:18:02;;;;;;;16.10;6.72;;;;;;;;;;5034516;28;20078;-52
2021/08/15 00:20:28;;;;;;;11.85;6.38;;;;;;;;;;5034267;28;20472;-52
2021/08/15 00:22:54;;;;;;;11.75;6.07;;;;;;;;;;5033487;28;20116;-52
2021/08/15 00:25:20;;;;;;;9.25;5.30;;;;;;;;;;5034099;28;20026;-52
2021/08/15 00:27:46;;;;;;;13.30;6.22;;;;;;;;;;5033644;28;20029;-52
2021/08/15 00:30:14;;;;;;;10.65;6.70;;;;;;;;;;5034323;28;20031;-52
2021/08/15 00:32:41;;;;;;;12.43;5.97;;;;;;;;;;5033131;28;20469;-52
2021/08/15 00:35:07;;;;;;;13.63;6.78;;;;;;;;;;5034052;28;20112;-52
2021/08/15 00:37:33;;;;;;;12.90;5.88;;;;;;;;;;5034182;28;20048;-52
2021/08/15 00:39:59;;;;;;;13.18;6.55;;;;;;;;;;5034142;28;20036;-52
2021/08/15 00:42:25;;;;;;;11.55;5.85;;;;;;;;;;5032992;28;20021;-52
2021/08/15 00:44:52;;;;;;;11.70;7.18;;;;;;;;;;5034011;28;20036;-52
2021/08/15 00:47:18;;;;;;;11.52;5.68;;;;;;;;;;5033646;28;20033;-52
2021/08/15 00:49:44;;;;;;;13.85;6.50;;;;;;;;;;5033952;28;20037;-51
2021/08/15 00:52:10;;;;;;;13.80;6.45;;;;;;;;;;5032821;28;20083;-52
2021/08/15 00:54:36;;;;;;;17.90;7.18;;;;;;;;;;5034019;28;20154;-52
2021/08/15 00:57:02;;;;;;;8.95;5.68;;;;;;;;;;5033156;28;20032;-52
2021/08/15 00:59:28;;;;;;;9.05;6.30;;;;;;;;;;5033690;28;20028;-52
2021/08/15 01:01:55;;;;;;;11.30;6.18;;;;;;;;;;5033047;28;20384;-52
2021/08/15 01:04:22;;;;;;;9.07;6.40;;;;;;;;;;5033282;28;20022;-51
2021/08/15 01:06:49;;;;;;;11.52;6.45;;;;;;;;;;5033097;28;20095;-52
2021/08/15 01:09:15;;;;;;;10.40;6.50;;;;;;;;;;5033654;28;20029;-52
2021/08/15 01:11:41;;;;;;;11.50;6.40;;;;;;;;;;5032252;28;20037;-52
2021/08/15 01:14:07;;;;;;;11.20;6.53;;;;;;;;;;5033487;28;20096;-52
2021/08/15 01:16:42;;;;;;;9.43;5.63;;;;;;;;;;5033341;28;20029;-52
2021/08/15 01:19:08;;;;;;;14.38;6.90;;;;;;;;;;5033122;28;20033;-52
2021/08/15 01:21:34;;;;;;;11.10;6.75;;;;;;;;;;5032367;28;20419;-52
2021/08/15 01:24:01;;;;;;;10.20;6.32;;;;;;;;;;5032608;28;20410;-52
2021/08/15 01:26:27;;;;;;;19.60;6.30;;;;;;;;;;5032493;28;20053;-52
2021/08/15 01:28:53;;;;;;;16.60;6.65;;;;;;;;;;5033392;28;20075;-52
2021/08/15 01:31:20;;;;;;;10.55;6.72;;;;;;;;;;5032465;28;20075;-52
2021/08/15 01:33:46;;;;;;;19.50;7.32;;;;;;;;;;5032497;28;20351;-52
2021/08/15 01:36:16;;;;;;;13.00;6.70;;;;;;;;;;5033066;28;20025;-52
2021/08/15 01:38:42;;;;;;;;;;;;;;;;;;5033347;28;20029;-52
2021/08/15 01:41:09;;;;;;;9.73;6.53;;;;;;;;;;5031813;28;20235;-52
2021/08/15 01:43:51;;;;;;;19.48;6.50;;;;;;;;;;5033000;28;20108;-52
2021/08/15 01:46:18;;;;;;;11.50;6.70;;;;;;;;;;5033195;28;20100;-52
2021/08/15 01:48:44;;;;;;;14.02;6.53;;;;;;;;;;5032632;28;20165;-52
2021/08/15 01:51:10;;;;;;;10.73;5.93;;;;;;;;;;5032243;28;20027;-52
2021/08/15 01:53:37;;;;;;;11.90;6.03;;;;;;;;;;5032788;28;20033;-52
2021/08/15 01:56:03;;;;;;;14.43;6.43;;;;;;;;;;5032330;28;20516;-52
2021/08/15 01:58:29;;;;;;;13.25;7.53;;;;;;;;;;5032809;28;20040;-52
2021/08/15 02:00:55;;;;;;;11.68;6.18;;;;;;;;;;5031818;28;20030;-51
2021/08/15 02:03:21;;;;;;;12.27;6.43;;;;;;;;;;5032900;28;20300;-52
2021/08/15 02:05:47;;;;;;;12.88;6.70;;;;;;;;;;5031929;28;20470;-52
2021/08/15 02:08:13;;;;;;;13.40;6.43;;;;;;;;;;5032713;28;20029;-52
2021/08/15 02:10:39;;;;;;;14.23;6.70;;;;;;;;;;5031072;28;20021;-52
2021/08/15 02:13:06;;;;;;;12.82;6.78;;;;;;;;;;5032257;28;20040;-52
2021/08/15 02:15:33;;;;;;;11.80;6.45;;;;;;;;;;5032789;28;20028;-51
2021/08/15 02:18:00;;;;;;;14.80;6.93;;;;;;;;;;5032211;28;20040;-52
2021/08/15 02:20:27;;;;;;;18.38;6.68;;;;;;;;;;5032181;28;20099;-52
2021/08/15 02:22:53;;;;;;;12.85;6.68;;;;;;;;;;5032061;28;20030;-52
2021/08/15 02:25:20;;;;;;;12.90;6.55;;;;;;;;;;5032448;28;20034;-52
2021/08/15 02:27:46;;;;;;;9.35;6.47;;;;;;;;;;5032004;28;20068;-52
2021/08/15 02:30:13;;;;;;;9.98;5.88;;;;;;;;;;5032722;28;20462;-52
2021/08/15 02:32:39;;;;;;;12.00;6.65;;;;;;;;;;5031745;28;20033;-52
2021/08/15 02:35:05;;;;;;;13.30;6.28;;;;;;;;;;5031565;28;20113;-52
2021/08/15 02:37:32;;;;;;;13.82;6.40;;;;;;;;;;5035971;28;20017;-52
2021/08/15 02:39:59;;;;;;;12.02;6.88;;;;;;;;;;5036501;28;20022;-52
2021/08/15 02:42:28;;;;;;;12.02;6.80;;;;;;;;;;5035596;28;20458;-52
2021/08/15 02:44:54;;;;;;;10.68;6.47;;;;;;;;;;5036379;28;20021;-52
2021/08/15 02:47:20;;;;;;;15.57;7.03;;;;;;;;;;5035650;28;20053;-52
2021/08/15 02:49:46;;;;;;;24.73;11.70;;;;;;;;;;5028550;28;20009;-52
2021/08/15 02:52:12;;;;;;;15.27;9.02;;;;;;;;;;5035134;28;20156;-51
2021/08/15 02:54:39;;;;;;;14.38;8.18;;;;;;;;;;5035882;28;20485;-51
2021/08/15 02:57:05;;;;;;;13.23;6.80;;;;;;;;;;5036024;28;20371;-52
2021/08/15 02:59:33;;;;;;;11.82;7.18;;;;;;;;;;5035392;28;20017;-52
2021/08/15 03:01:59;;;;;;;11.70;6.97;;;;;;;;;;5035367;28;20402;-52
2021/08/15 03:04:25;;;;;;;10.57;6.97;;;;;;;;;;5035766;28;20025;-52
2021/08/15 03:06:51;;;;;;;14.77;7.07;;;;;;;;;;5035223;28;20061;-53
2021/08/15 03:09:17;;;;;;;11.52;6.47;;;;;;;;;;5035653;28;20032;-52
2021/08/15 03:11:43;;;;;;;15.77;7.40;;;;;;;;;;5034588;28;20447;-52
2021/08/15 03:14:09;;;;;;;12.82;7.28;;;;;;;;;;5035490;28;20029;-52
2021/08/15 03:16:35;;;;;;;11.82;7.40;;;;;;;;;;5035624;28;20056;-52
2021/08/15 03:19:01;;;;;;;11.07;6.57;;;;;;;;;;5032271;28;20412;-51
2021/08/15 03:21:30;;;;;;;17.30;8.35;;;;;;;;;;5034393;28;20083;-52
2021/08/15 03:23:56;;;;;;;16.17;7.85;;;;;;;;;;5035423;28;20482;-51
2021/08/15 03:26:22;;;;;;;16.45;8.70;;;;;;;;;;5035493;28;20383;-52
2021/08/15 03:28:48;;;;;;;16.50;9.68;;;;;;;;;;5035317;28;20029;-52
2021/08/15 03:31:14;;;;;;;21.90;9.52;;;;;;;;;;5034353;28;20070;-52
2021/08/15 03:33:40;;;;;;;17.38;9.32;;;;;;;;;;5034983;28;20101;-52
2021/08/15 03:36:06;;;;;;;16.60;8.57;;;;;;;;;;5034863;28;20057;-52
2021/08/15 03:38:32;;;;;;;12.77;7.18;;;;;;;;;;5035597;28;20041;-52
2021/08/15 03:40:59;;;;;;;15.98;7.50;;;;;;;;;;5034277;28;20064;-51
2021/08/15 03:43:25;;;;;;;11.05;6.50;;;;;;;;;;5034922;28;20025;-51
2021/08/15 03:45:51;;;;;;;13.80;7.28;;;;;;;;;;5035135;28;20172;-52
2021/08/15 03:48:17;;;;;;;9.82;6.75;;;;;;;;;;5034028;28;20041;-51
2021/08/15 03:50:43;;;;;;;11.30;5.80;;;;;;;;;;5034024;28;20030;-52
2021/08/15 03:53:09;;;;;;;15.27;6.82;;;;;;;;;;5034351;28;20537;-52
2021/08/15 03:55:35;;;;;;;10.75;6.50;;;;;;;;;;5034978;28;20029;-52
2021/08/15 03:58:01;;;;;;;13.50;6.68;;;;;;;;;;5035212;28;20057;-51
2021/08/15 04:00:27;;;;;;;9.95;6.75;;;;;;;;;;5034605;28;20061;-52
2021/08/15 04:02:54;;;;;;;14.15;7.18;;;;;;;;;;5034067;28;20033;-51
2021/08/15 04:05:20;;;;;;;13.45;6.65;;;;;;;;;;5034539;28;20155;-52
2021/08/15 04:07:46;;;;;;;12.68;6.38;;;;;;;;;;5034774;28;20121;-51
2021/08/15 04:10:12;;;;;;;13.32;7.35;;;;;;;;;;5034408;28;20351;-52
2021/08/15 04:12:38;;;;;;;12.68;6.75;;;;;;;;;;5033818;28;20080;-51
2021/08/15 04:15:04;;;;;;;10.88;6.60;;;;;;;;;;5034721;28;20045;-52
2021/08/15 04:17:30;;;;;;;16.17;6.78;;;;;;;;;;5034073;28;20367;-52
2021/08/15 04:19:56;;;;;;;13.13;6.40;;;;;;;;;;5034709;28;20025;-52
2021/08/15 04:22:22;;;;;;;10.55;6.93;;;;;;;;;;5033475;28;20029;-51
2021/08/15 04:24:48;;;;;;;12.98;7.45;;;;;;;;;;5034346;28;20037;-51
2021/08/15 04:27:14;;;;;;;13.63;7.10;;;;;;;;;;5033817;28;20355;-51
2021/08/15 04:29:40;;;;;;;11.73;6.13;;;;;;;;;;5034467;28;20022;-52
2021/08/15 04:32:07;;;;;;;12.90;7.03;;;;;;;;;;5033319;28;20033;-52
2021/08/15 04:34:33;;;;;;;14.70;6.85;;;;;;;;;;5034348;28;20394;-52
2021/08/15 04:36:59;;;;;;;11.20;6.63;;;;;;;;;;5033208;28;20028;-51
2021/08/15 04:39:25;;;;;;;12.38;6.30;;;;;;;;;;5033581;28;20104;-52
2021/08/15 04:41:51;;;;;;;12.68;6.00;;;;;;;;;;5032207;28;20355;-51
2021/08/15 04:44:17;;;;;;;13.75;6.57;;;;;;;;;;5033722;28;20025;-52
2021/08/15 04:46:43;;;;;;;10.52;6.47;;;;;;;;;;5033679;28;20030;-52
2021/08/15 04:49:09;;;;;;;14.43;6.90;;;;;;;;;;5033798;28;20108;-51
2021/08/15 04:51:35;;;;;;;11.57;6.00;;;;;;;;;;5033135;28;20351;-52
2021/08/15 04:54:01;;;;;;;13.88;6.22;;;;;;;;;;5033869;28;20432;-52
2021/08/15 04:56:27;;;;;;;11.35;6.55;;;;;;;;;;5033811;28;20021;-52
2021/08/15 04:58:53;;;;;;;11.05;6.72;;;;;;;;;;5033399;28;20402;-52
2021/08/15 05:01:19;;;;;;;11.10;5.95;;;;;;;;;;5032790;28;20029;-52
2021/08/15 05:03:45;;;;;;;12.00;6.57;;;;;;;;;;5033617;28;20061;-52
2021/08/15 05:06:11;;;;;;;14.77;7.05;;;;;;;;;;5033262;28;20033;-52
2021/08/15 05:08:37;;;;;;;22.35;6.80;;;;;;;;;;5033174;28;20048;-51
2021/08/15 05:11:03;;;;;;;10.73;6.25;;;;;;;;;;5032513;28;20068;-52
2021/08/15 05:13:29;;;;;;;8.32;6.22;;;;;;;;;;5033168;28;20030;-52
2021/08/15 05:15:55;;;;;;;11.98;6.88;;;;;;;;;;5033459;28;20029;-51
2021/08/15 05:18:21;;;;;;;11.88;6.28;;;;;;;;;;5033318;28;20029;-52
2021/08/15 05:20:47;;;;;;;14.55;6.80;;;;;;;;;;5032826;28;20395;-52
2021/08/15 05:23:13;;;;;;;10.02;6.18;;;;;;;;;;5033108;28;20036;-52
2021/08/15 05:25:40;;;;;;;12.98;6.50;;;;;;;;;;5032841;28;20036;-52
2021/08/15 05:28:07;;;;;;;9.98;6.20;;;;;;;;;;5032798;28;20057;-52
2021/08/15 05:30:33;;;;;;;14.25;6.55;;;;;;;;;;5032646;28;20080;-52
2021/08/15 05:32:59;;;;;;;12.30;6.95;;;;;;;;;;5032870;28;20076;-52
2021/08/15 05:35:25;;;;;;;10.80;6.28;;;;;;;;;;5025438;28;20030;-52
2021/08/15 05:37:51;;;;;;;10.75;6.00;;;;;;;;;;5013637;28;20196;-52
2021/08/15 05:40:18;;;;;;;13.60;6.35;;;;;;;;;;5013095;28;20164;-52
2021/08/15 05:42:44;;;;;;;13.82;6.90;;;;;;;;;;5012127;28;20033;-52
2021/08/15 05:45:11;;;;;;;13.13;6.43;;;;;;;;;;5013189;28;20352;-52
2021/08/15 05:47:37;;;;;;;11.27;6.03;;;;;;;;;;5013244;28;20120;-52
2021/08/15 05:50:04;;;;;;;16.05;6.25;;;;;;;;;;5013767;28;20017;-52
2021/08/15 05:52:30;;;;;;;12.30;7.18;;;;;;;;;;5014189;28;20037;-52
2021/08/15 05:54:56;;;;;;;18.58;6.97;;;;;;;;;;5032498;28;20049;-52
2021/08/15 05:57:22;;;;;;;13.20;6.72;;;;;;;;;;5032443;28;20057;-51
2021/08/15 05:59:48;;;;;;;12.48;6.28;;;;;;;;;;5032598;28;20104;-51
2021/08/15 06:02:14;;;;;;;11.40;7.20;;;;;;;;;;5031871;28;20018;-51
2021/08/15 06:04:40;;;;;;;12.93;6.55;;;;;;;;;;5032297;28;20025;-50
2021/08/15 06:07:06;;;;;;;11.88;7.82;;;;;;;;;;5031821;28;20060;-51
2021/08/15 06:09:32;;;;;;;12.65;7.32;;;;;;;;;;5032272;28;20032;-51
2021/08/15 06:12:04;;;;;;;15.90;8.98;;;;;;;;;;5033852;28;20030;-51
2021/08/15 06:14:31;;;;;;;13.77;8.02;;;;;;;;;;5036390;28;20033;-51
2021/08/15 06:16:56;;;;;;;18.77;8.38;;;;;;;;;;5036547;28;20152;-51
2021/08/15 06:19:22;;;;;;;16.73;8.35;;;;;;;;;;5036426;28;20478;-51
2021/08/15 06:21:48;;;;;;;18.35;8.45;;;;;;;;;;5035608;28;20029;-51
2021/08/15 06:24:14;;;;;;;20.58;8.40;;;;;;;;;;5036842;28;20033;-52
2021/08/15 06:26:40;;;;;;;15.70;8.70;;;;;;;;;;5036313;28;20363;-51
2021/08/15 06:29:06;;;;;;;18.00;8.95;;;;;;;;;;5036657;28;20084;-51
2021/08/15 06:31:32;;;;;;;14.68;8.75;;;;;;;;;;5035982;28;20044;-51
2021/08/15 06:33:58;;;;;;;18.00;9.57;;;;;;;;;;5036081;28;20064;-51
2021/08/15 06:36:25;;;;;;;17.27;8.68;;;;;;;;;;5036226;28;20029;-51
2021/08/15 06:38:51;;;;;;;20.10;9.40;;;;;;;;;;5036296;28;20090;-51
2021/08/15 06:41:17;;;;;;;19.45;9.77;;;;;;;;;;5035310;28;20108;-51
2021/08/15 06:43:43;;;;;;;16.45;10.52;;;;;;;;;;5035756;28;20079;-51
2021/08/15 06:46:10;;;;;;;17.13;10.18;;;;;;;;;;5036413;28;20359;-51
2021/08/15 06:48:36;;;;;;;22.55;9.82;;;;;;;;;;5036177;28;20052;-51
2021/08/15 06:51:02;;;;;;;20.63;10.77;;;;;;;;;;5035469;28;20052;-51
2021/08/15 06:53:28;;;;;;;22.73;10.20;;;;;;;;;;5036012;28;20032;-51
2021/08/15 06:55:56;;;;;;;20.55;9.85;;;;;;;;;;5035764;28;20033;-51
2021/08/15 06:58:22;;;;;;;15.48;9.20;;;;;;;;;;5035737;28;20406;-51
2021/08/15 07:00:48;;;;;;;20.30;11.02;;;;;;;;;;5035048;28;20021;-51
2021/08/15 07:03:14;;;;;;;15.85;10.05;;;;;;;;;;5035918;28;20033;-51
2021/08/15 07:05:40;;;;;;;19.83;11.13;;;;;;;;;;5035842;28;20033;-51
2021/08/15 07:08:06;;;;;;;21.35;10.70;;;;;;;;;;5034586;28;20043;-51
2021/08/15 07:10:32;;;;;;;19.65;10.32;;;;;;;;;;5035282;28;20383;-51
2021/08/15 07:12:58;;;;;;;19.52;10.27;;;;;;;;;;5033848;28;20462;-52
2021/08/15 07:15:28;;;;;;;20.05;10.77;;;;;;;;;;5035870;28;20053;-51
2021/08/15 07:17:55;;;;;;;21.50;12.13;;;;;;;;;;5034337;28;20025;-51
2021/08/15 07:20:22;;;;;;;42.15;16.30;;;;;;;;;;5035154;28;20409;-51
2021/08/15 07:22:48;;;;;;;26.15;13.30;;;;;;;;;;5033239;28;20060;-51
2021/08/15 07:25:16;;;;;;;23.90;12.05;;;;;;;;;;5035603;28;20447;-51
2021/08/15 07:27:42;;;;;;;26.63;12.52;;;;;;;;;;5035171;28;20038;-51
2021/08/15 07:30:08;;;;;;;27.85;12.80;;;;;;;;;;5035373;28;20036;-52
2021/08/15 07:32:34;;;;;;;38.47;17.25;;;;;;;;;;5034650;28;20060;-51
2021/08/15 07:35:03;;;;;;;34.83;15.95;;;;;;;;;;5035225;28;20055;-51
2021/08/15 07:37:29;;;;;;;37.65;15.73;;;;;;;;;;5034207;28;20371;-53
2021/08/15 07:39:55;;;;;;;19.88;10.05;;;;;;;;;;5033716;28;20108;-52
2021/08/15 07:42:21;;;;;;;29.77;11.95;;;;;;;;;;5032488;28;20495;-52
2021/08/15 07:44:48;;;;;;;26.45;12.40;;;;;;;;;;5032671;28;20490;-53
2021/08/15 07:47:14;;;;;;;24.65;12.43;;;;;;;;;;5035268;28;20072;-53
2021/08/15 07:49:40;;;;;;;50.08;22.88;;;;;;;;;;5034723;28;20026;-52
2021/08/15 07:52:06;;;;;;;49.53;20.73;;;;;;;;;;5034164;28;20033;-52
2021/08/15 07:54:32;;;;;;;56.65;20.77;;;;;;;;;;5034792;28;20366;-52
2021/08/15 07:56:58;;;;;;;32.53;13.40;;;;;;;;;;5034959;28;20029;-53
2021/08/15 07:59:25;;;;;;;27.50;12.65;;;;;;;;;;5034816;28;20025;-53
2021/08/15 08:01:51;;;;;;;23.02;12.35;;;;;;;;;;5034337;28;20112;-53
2021/08/15 08:04:17;;;;;;;18.83;10.25;;;;;;;;;;5034644;28;20017;-52
2021/08/15 08:06:43;;;;;;;16.83;10.02;;;;;;;;;;5034390;28;20510;-53
2021/08/15 08:09:10;;;;;;;19.60;11.07;;;;;;;;;;5034236;28;20096;-52
2021/08/15 08:11:36;;;;;;;43.03;18.55;;;;;;;;;;5034215;28;20053;-52
2021/08/15 08:14:02;;;;;;;58.60;22.63;;;;;;;;;;5034242;28;20038;-52
2021/08/15 08:16:28;;;;;;;57.67;24.83;;;;;;;;;;5034204;28;20550;-53
2021/08/15 08:18:54;;;;;;;54.45;21.85;;;;;;;;;;5034401;28;20075;-52
2021/08/15 08:21:20;;;;;;;50.20;20.50;;;;;;;;;;5033883;28;20032;-52
2021/08/15 08:23:46;;;;;;;39.83;19.17;;;;;;;;;;5034250;28;20048;-53
2021/08/15 08:26:12;;;;;;;32.25;13.98;;;;;;;;;;5034705;28;20029;-52
2021/08/15 08:28:38;;;;;;;43.97;19.52;;;;;;;;;;5033579;28;20083;-52
2021/08/15 08:31:04;;;;;;;56.25;21.08;;;;;;;;;;5033578;28;20021;-53
2021/08/15 08:33:30;;;;;;;69.10;26.92;;;;;;;;;;5033476;28;20405;-52
2021/08/15 08:35:57;;;;;;;53.10;23.58;;;;;;;;;;5034221;28;20043;-52
2021/08/15 08:38:23;;;;;;;46.88;21.98;;;;;;;;;;5033942;28;20030;-52
2021/08/15 08:40:49;;;;;;;43.85;19.13;;;;;;;;;;5033560;28;20024;-52
2021/08/15 08:43:19;;;;;;;28.92;14.38;;;;;;;;;;5033489;28;20033;-52
2021/08/15 08:45:46;;;;;;;20.67;11.80;;;;;;;;;;5033917;28;20022;-52
2021/08/15 08:48:14;;;;;;;23.27;12.02;;;;;;;;;;5033829;28;20037;-52
2021/08/15 08:50:41;;;;;;;19.55;11.00;;;;;;;;;;5031836;28;20029;-53
2021/08/15 08:53:07;;;;;;;13.80;7.68;;;;;;;;;;5033179;28;20022;-53
2021/08/15 08:55:33;;;;;;;12.43;7.95;;;;;;;;;;5033689;28;20482;-52
2021/08/15 08:57:59;;;;;;;16.15;8.20;;;;;;;;;;5033755;28;20032;-53
2021/08/15 09:00:25;;;;;;;16.10;7.35;;;;;;;;;;5033254;28;20022;-53
2021/08/15 09:02:57;;;;;;;24.65;8.27;;;;;;;;;;5033092;28;20034;-53
2021/08/15 09:05:31;;;;;;;12.25;7.05;;;;;;;;;;5033436;28;20032;-53
2021/08/15 09:07:57;;;;;;;16.50;7.95;;;;;;;;;;5033754;28;20102;-52
2021/08/15 09:10:29;;;;;;;11.60;7.38;;;;;;;;;;5033170;28;20113;-53
2021/08/15 09:13:00;;;;;;;15.10;8.73;;;;;;;;;;5033344;28;20238;-52
2021/08/15 09:15:26;;;;;;;18.25;9.00;;;;;;;;;;5033260;28;20243;-52
2021/08/15 09:17:54;;;;;;;12.18;7.57;;;;;;;;;;5030371;28;20117;-52
2021/08/15 09:20:23;;;;;;;14.50;7.88;;;;;;;;;;5032976;28;20029;-53
2021/08/15 09:22:49;;;;;;;12.43;7.97;;;;;;;;;;5032614;28;20030;-53
2021/08/15 09:25:21;;;;;;;12.60;7.50;;;;;;;;;;5033071;28;20102;-53
2021/08/15 09:27:46;;;;;;;12.95;7.43;;;;;;;;;;5032765;28;20160;-53
2021/08/15 09:30:19;;;;;;;14.00;7.28;;;;;;;;;;5032996;28;20195;-52
2021/08/15 09:32:49;;;;;;;10.73;7.05;;;;;;;;;;5032527;28;20139;-52
2021/08/15 09:35:20;;;;;;;18.83;7.85;;;;;;;;;;5032930;28;20029;-53
2021/08/15 09:37:45;;;;;;;;;;;;;;;;;;5033578;28;20030;-53
2021/08/15 09:40:24;;;;;;;10.77;6.97;;;;;;;;;;5032593;28;19905;-52
2021/08/15 09:42:51;;;;;;;17.92;8.10;;;;;;;;;;5032324;28;20032;-53
2021/08/15 09:45:18;;;;;;;11.73;7.07;;;;;;;;;;5032250;28;20029;-53
2021/08/15 09:47:44;;;;;;;14.75;7.25;;;;;;;;;;5032505;28;20395;-52
2021/08/15 09:50:21;;;;;;;19.17;8.93;;;;;;;;;;5033069;28;20025;-53
2021/08/15 09:52:47;;;;;;;17.13;8.27;;;;;;;;;;5032182;28;20040;-52
2021/08/15 09:55:13;;;;;;;15.20;6.82;;;;;;;;;;5033089;28;20033;-53
2021/08/15 09:57:40;;;;;;;18.55;7.00;;;;;;;;;;5032940;28;20032;-53
2021/08/15 10:00:07;;;;;;;12.10;7.28;;;;;;;;;;5032364;28;20037;-53
2021/08/15 10:02:33;;;;;;;15.63;6.45;;;;;;;;;;5032246;28;20034;-53
2021/08/15 10:05:00;;;;;;;15.43;6.35;;;;;;;;;;5032875;28;20018;-53
2021/08/15 10:07:26;;;;;;;10.30;6.82;;;;;;;;;;5032482;28;20108;-52
2021/08/15 10:09:52;;;;;;;13.38;6.30;;;;;;;;;;5032842;28;20017;-53
2021/08/15 10:12:18;;;;;;;11.55;7.15;;;;;;;;;;5032161;28;20121;-53
2021/08/15 10:14:44;;;;;;;9.30;5.95;;;;;;;;;;5032655;28;20471;-53
2021/08/15 10:17:16;;;;;;;16.52;7.03;;;;;;;;;;5032864;28;20026;-53
2021/08/15 10:19:47;;;;;;;23.00;7.28;;;;;;;;;;5032353;28;20446;-52
2021/08/15 10:22:20;;;;;;;10.73;7.15;;;;;;;;;;5031672;28;20375;-52
2021/08/15 10:24:48;;;;;;;18.90;6.50;;;;;;;;;;5032246;28;20494;-52
2021/08/15 10:27:33;;;;;;;15.30;7.30;;;;;;;;;;5032693;28;20060;-53
2021/08/15 10:29:59;;;;;;;10.63;7.05;;;;;;;;;;5032244;28;20036;-53
2021/08/15 10:32:25;;;;;;;15.98;7.63;;;;;;;;;;5031392;28;20025;-53
2021/08/15 10:34:51;;;;;;;13.70;6.75;;;;;;;;;;5032208;28;20021;-52
2021/08/15 10:37:23;;;;;;;13.02;6.35;;;;;;;;;;5032626;28;20021;-52
2021/08/15 10:39:49;;;;;;;16.08;7.10;;;;;;;;;;5032286;28;20029;-53
2021/08/15 10:42:34;;;;;;;16.33;6.75;;;;;;;;;;5031689;28;20367;-52
2021/08/15 10:45:01;;;;;;;13.00;7.47;;;;;;;;;;5032508;28;20113;-52
2021/08/15 10:47:27;;;;;;;12.73;6.35;;;;;;;;;;5032118;28;20446;-52
2021/08/15 10:49:54;;;;;;;13.93;7.32;;;;;;;;;;5032166;28;20057;-52
2021/08/15 10:52:28;;;;;;;17.00;7.57;;;;;;;;;;5031672;28;20026;-52
2021/08/15 10:54:59;;;;;;;12.23;7.05;;;;;;;;;;5032091;28;20043;-53
2021/08/15 10:57:34;;;;;;;12.63;7.43;;;;;;;;;;5033925;28;20079;-53
2021/08/15 11:00:00;;;;;;;19.73;6.78;;;;;;;;;;5036089;28;20060;-52
2021/08/15 11:02:32;;;;;;;10.75;6.68;;;;;;;;;;5033467;28;20061;-52
2021/08/15 11:04:59;;;;;;;14.98;7.00;;;;;;;;;;5035838;28;20022;-52
2021/08/15 11:07:36;;;;;;;14.60;6.63;;;;;;;;;;5035866;28;20037;-52
2021/08/15 11:10:04;;;;;;;15.93;7.72;;;;;;;;;;5035806;28;20057;-52
2021/08/15 11:12:30;;;;;;;11.85;6.93;;;;;;;;;;5035159;28;20068;-52
2021/08/15 11:14:56;;;;;;;12.93;6.70;;;;;;;;;;5035445;28;20477;-52
2021/08/15 11:17:22;;;;;;;12.82;7.15;;;;;;;;;;5035959;28;20021;-53
2021/08/15 11:19:48;;;;;;;11.25;6.65;;;;;;;;;;5035571;28;20424;-53
2021/08/15 11:22:18;;;;;;;9.45;6.38;;;;;;;;;;5034390;28;20032;-52
2021/08/15 11:24:44;;;;;;;16.50;7.30;;;;;;;;;;5035595;28;20034;-53
2021/08/15 11:27:31;;;;;;;15.10;6.60;;;;;;;;;;5035376;28;20095;-53
2021/08/15 11:29:58;;;;;;;10.18;6.28;;;;;;;;;;5035553;28;20100;-53
2021/08/15 11:32:29;;;;;;;18.10;6.70;;;;;;;;;;5034400;28;20437;-53
2021/08/15 11:35:03;;;;;;;16.50;7.38;;;;;;;;;;5035087;28;20028;-52
2021/08/15 11:37:31;;;;;;;11.77;6.25;;;;;;;;;;5035200;28;20360;-52
2021/08/15 11:40:08;;;;;;;16.58;7.57;;;;;;;;;;5035693;28;20029;-53
2021/08/15 11:42:34;;;;;;;19.60;7.20;;;;;;;;;;5034428;28;20026;-52
2021/08/15 11:45:02;;;;;;;11.95;7.57;;;;;;;;;;5035385;28;20454;-53
2021/08/15 11:47:30;;;;;;;16.10;8.32;;;;;;;;;;5034887;28;20049;-53
2021/08/15 11:49:57;;;;;;;13.63;7.28;;;;;;;;;;5035069;28;20025;-52
2021/08/15 11:52:24;;;;;;;14.48;7.10;;;;;;;;;;5034510;28;20025;-52
2021/08/15 11:54:51;;;;;;;10.93;7.60;;;;;;;;;;5035012;28;20095;-53
2021/08/15 11:57:17;;;;;;;12.38;6.75;;;;;;;;;;5034743;28;20355;-52
2021/08/15 11:59:46;;;;;;;11.43;5.72;;;;;;;;;;5034443;28;20372;-52
2021/08/15 12:02:19;;;;;;;19.15;7.28;;;;;;;;;;5034148;28;20029;-53
2021/08/15 12:04:46;;;;;;;17.42;6.85;;;;;;;;;;5034891;28;20026;-53
2021/08/15 12:07:13;;;;;;;22.23;7.13;;;;;;;;;;5034746;28;20034;-53
2021/08/15 12:09:39;;;;;;;18.92;6.78;;;;;;;;;;5034283;28;20022;-52
2021/08/15 12:12:07;;;;;;;14.05;6.70;;;;;;;;;;5033466;28;20103;-53
2021/08/15 12:14:34;;;;;;;18.85;7.75;;;;;;;;;;5034399;28;20388;-53
2021/08/15 12:17:00;;;;;;;13.02;6.95;;;;;;;;;;5034541;28;20018;-53
2021/08/15 12:19:33;;;;;;;14.63;6.68;;;;;;;;;;5034655;28;20270;-53
2021/08/15 12:22:00;;;;;;;17.00;7.38;;;;;;;;;;5033400;28;20052;-52
2021/08/15 12:24:27;;;;;;;12.02;6.85;;;;;;;;;;5034348;28;20128;-53
2021/08/15 12:26:55;;;;;;;11.82;7.35;;;;;;;;;;5033897;28;20033;-52
2021/08/15 12:29:26;;;;;;;16.63;7.03;;;;;;;;;;5034204;28;20025;-53
2021/08/15 12:32:08;;;;;;;15.40;7.18;;;;;;;;;;5033639;28;20025;-53
2021/08/15 12:34:42;;;;;;;16.83;7.57;;;;;;;;;;5033959;28;20025;-53
2021/08/15 12:37:18;;;;;;;13.45;7.78;;;;;;;;;;5034176;28;20332;-52
2021/08/15 12:39:45;;;;;;;19.05;7.30;;;;;;;;;;5034037;28;20432;-52
2021/08/15 12:42:16;;;;;;;12.43;7.03;;;;;;;;;;5033223;28;20359;-52
2021/08/15 12:44:58;;;;;;;12.85;6.72;;;;;;;;;;5034117;28;20105;-53
2021/08/15 12:47:32;;;;;;;18.80;7.90;;;;;;;;;;5033935;28;20029;-53
2021/08/15 12:50:04;;;;;;;16.73;6.82;;;;;;;;;;5034055;28;20034;-53
2021/08/15 12:52:39;;;;;;;14.52;6.78;;;;;;;;;;5033029;28;20036;-53
2021/08/15 12:55:15;;;;;;;18.02;6.85;;;;;;;;;;5034044;28;20095;-52
2021/08/15 12:57:42;;;;;;;13.65;7.15;;;;;;;;;;5033349;28;20025;-52
2021/08/15 13:00:09;;;;;;;13.30;7.05;;;;;;;;;;5033397;28;20026;-53
2021/08/15 13:02:35;;;;;;;19.98;7.53;;;;;;;;;;5032994;28;20029;-53
2021/08/15 13:05:02;;;;;;;15.48;7.38;;;;;;;;;;5033634;28;20104;-53
2021/08/15 13:07:29;;;;;;;14.48;7.18;;;;;;;;;;5033637;28;20034;-53
2021/08/15 13:09:55;;;;;;;25.08;8.15;;;;;;;;;;5033550;28;20083;-52
2021/08/15 13:12:21;;;;;;;20.30;7.90;;;;;;;;;;5032961;28;20033;-53
2021/08/15 13:14:47;;;;;;;16.30;7.22;;;;;;;;;;5033457;28;20029;-53
2021/08/15 13:17:13;;;;;;;14.00;6.75;;;;;;;;;;5033269;28;20032;-52
2021/08/15 13:19:40;;;;;;;15.93;7.47;;;;;;;;;;5033227;28;20032;-53
2021/08/15 13:22:06;;;;;;;5.88;3.30;;;;;;;;;;5031663;28;20526;-52
2021/08/15 13:24:32;;;;;;;9.55;4.50;;;;;;;;;;5032715;28;20371;-52
2021/08/15 13:27:00;;;;;;;9.65;4.00;;;;;;;;;;5033245;28;20020;-52
2021/08/15 13:29:26;;;;;;;16.38;3.53;;;;;;;;;;5032958;28;20057;-52
2021/08/15 13:31:52;;;;;;;22.63;4.57;;;;;;;;;;5032637;28;20069;-52
2021/08/15 13:34:18;;;;;;;8.98;3.67;;;;;;;;;;5033158;28;20100;-52
2021/08/15 13:36:44;;;;;;;10.70;3.47;;;;;;;;;;5033104;28;20136;-52
2021/08/15 13:39:10;;;;;;;7.75;3.72;;;;;;;;;;5033089;28;20026;-52
2021/08/15 13:41:36;;;;;;;10.70;4.18;;;;;;;;;;5031820;28;20036;-53
2021/08/15 13:44:02;;;;;;;7.30;3.67;;;;;;;;;;5032434;28;20391;-53
2021/08/15 13:46:28;;;;;;;12.75;3.63;;;;;;;;;;5033381;28;20029;-52
2021/08/15 13:48:54;;;;;;;11.98;3.70;;;;;;;;;;5032904;28;20312;-52
2021/08/15 13:51:20;;;;;;;11.13;3.15;;;;;;;;;;5032230;28;20024;-52
2021/08/15 13:53:46;;;;;;;12.40;3.47;;;;;;;;;;5032776;28;20029;-52
2021/08/15 13:56:12;;;;;;;13.32;4.25;;;;;;;;;;5032873;28;20029;-52
2021/08/15 13:58:38;;;;;;;22.17;3.50;;;;;;;;;;5032465;28;20036;-52
2021/08/15 14:01:04;;;;;;;10.38;3.60;;;;;;;;;;5031822;28;20108;-52
2021/08/15 14:03:30;;;;;;;12.35;3.97;;;;;;;;;;5033096;28;20037;-52
2021/08/15 14:05:56;;;;;;;10.77;3.35;;;;;;;;;;5032504;28;20032;-53
2021/08/15 14:08:22;;;;;;;12.40;4.32;;;;;;;;;;5033244;28;20033;-53
2021/08/15 14:10:48;;;;;;;9.30;3.22;;;;;;;;;;5031987;28;20466;-52
2021/08/15 14:13:14;;;;;;;7.10;3.15;;;;;;;;;;5032239;28;20049;-52
2021/08/15 14:15:41;;;;;;;11.10;3.72;;;;;;;;;;5032674;28;20482;-53
2021/08/15 14:18:08;;;;;;;7.97;3.33;;;;;;;;;;5032738;28;20026;-53
2021/08/15 14:20:34;;;;;;;8.85;3.03;;;;;;;;;;5031891;28;20377;-51
2021/08/15 14:23:00;;;;;;;10.70;3.35;;;;;;;;;;5032421;28;20029;-56
2021/08/15 14:25:26;;;;;;;9.32;3.28;;;;;;;;;;5031884;28;20114;-56
2021/08/15 14:27:52;;;;;;;9.73;2.80;;;;;;;;;;5031029;28;20038;-56
2021/08/15 14:30:18;;;;;;;9.32;3.30;;;;;;;;;;5031069;28;20025;-56